createdAt,value
2023-01-07T00:01:27.177Z,67.36
2023-01-07T00:03:54.933Z,68.50
2023-01-07T00:06:25.644Z,69.15
2023-01-07T00:08:53.272Z,69.09
2023-01-07T00:11:32.061Z,68.45
2023-01-07T00:13:59.210Z,68.68
2023-01-07T00:16:28.481Z,68.17
2023-01-07T00:18:55.918Z,68.92
2023-01-07T00:21:23.451Z,69.42
2023-01-07T00:23:50.423Z,69.02
2023-01-07T00:26:20.716Z,68.17
2023-01-07T00:28:48.156Z,68.53
2023-01-07T00:31:22.898Z,68.69
2023-01-07T00:33:50.124Z,68.50
2023-01-07T00:36:16.761Z,69.15
2023-01-07T00:38:43.484Z,69.72
2023-01-07T00:41:10.375Z,69.07
2023-01-07T00:43:37.066Z,68.44
2023-01-07T00:46:03.805Z,69.20
2023-01-07T00:48:32.633Z,69.07
2023-01-07T00:50:59.311Z,69.24
2023-01-07T00:53:25.965Z,68.47
2023-01-07T00:55:52.603Z,68.60
2023-01-07T00:58:23.647Z,69.23
2023-01-07T01:00:50.425Z,69.00
2023-01-07T01:03:17.133Z,68.95
2023-01-07T01:05:43.763Z,69.15
2023-01-07T01:08:10.469Z,70.05
2023-01-07T01:10:37.209Z,70.55
2023-01-07T01:13:03.839Z,71.17
2023-01-07T01:15:30.483Z,70.68
2023-01-07T01:17:57.108Z,70.62
2023-01-07T01:20:23.727Z,70.01
2023-01-07T01:22:50.344Z,69.78
2023-01-07T01:25:16.964Z,69.75
2023-01-07T01:27:43.574Z,69.82
2023-01-07T01:30:10.590Z,69.52
2023-01-07T01:32:37.231Z,69.57
2023-01-07T01:35:03.924Z,69.29
2023-01-07T01:37:30.576Z,69.09
2023-01-07T01:39:57.218Z,69.32
2023-01-07T01:42:24.318Z,69.12
2023-01-07T01:44:50.820Z,69.38
2023-01-07T01:47:20.313Z,68.44
2023-01-07T01:49:56.947Z,68.41
2023-01-07T01:52:26.787Z,68.58
2023-01-07T01:54:55.788Z,70.21
2023-01-07T01:57:22.446Z,69.30
2023-01-07T01:59:50.106Z,69.62
2023-01-07T02:02:20.394Z,69.36
2023-01-07T02:04:47.144Z,67.98
2023-01-07T02:07:16.855Z,68.40
2023-01-07T02:09:43.648Z,69.12
2023-01-07T02:12:41.257Z,69.99
2023-01-07T02:15:37.082Z,69.99
2023-01-07T02:18:32.775Z,70.28
2023-01-07T02:21:02.293Z,70.14
2023-01-07T02:23:50.305Z,70.66
2023-01-07T02:26:38.452Z,69.77
2023-01-07T02:29:13.978Z,70.06
2023-01-07T02:31:46.249Z,70.41
2023-01-07T02:34:35.565Z,70.28
2023-01-07T02:37:24.108Z,70.64
2023-01-07T02:39:58.355Z,69.99
2023-01-07T02:42:37.874Z,70.16
2023-01-07T02:45:16.319Z,70.28
2023-01-07T02:47:47.820Z,69.96
2023-01-07T02:50:14.502Z,70.43
2023-01-07T02:52:41.607Z,69.60
2023-01-07T02:55:08.200Z,69.28
2023-01-07T02:57:56.402Z,69.60
2023-01-07T03:00:22.904Z,69.68
2023-01-07T03:03:10.521Z,69.85
2023-01-07T03:05:39.886Z,68.53
2023-01-07T03:08:15.272Z,68.24
2023-01-07T03:11:04.210Z,69.36
2023-01-07T03:13:52.554Z,69.04
2023-01-07T03:16:24.104Z,69.29
2023-01-07T03:18:56.005Z,69.10
2023-01-07T03:21:22.718Z,69.10
2023-01-07T03:23:51.535Z,68.89
2023-01-07T03:26:20.291Z,68.37
2023-01-07T03:28:46.959Z,68.25
2023-01-07T03:31:14.203Z,67.91
2023-01-07T03:34:00.396Z,68.99
2023-01-07T03:36:32.896Z,69.25
2023-01-07T03:38:59.542Z,69.42
2023-01-07T03:41:26.200Z,69.40
2023-01-07T03:43:52.873Z,69.50
2023-01-07T03:46:19.505Z,69.61
2023-01-07T03:48:46.140Z,69.28
2023-01-07T03:51:12.809Z,68.27
2023-01-07T03:53:39.432Z,68.46
2023-01-07T03:56:06.188Z,68.40
2023-01-07T03:58:32.863Z,69.37
2023-01-07T04:00:59.724Z,69.59
2023-01-07T04:03:26.424Z,70.41
2023-01-07T04:05:53.059Z,70.44
2023-01-07T04:08:21.743Z,70.66
2023-01-07T04:10:48.375Z,70.25
2023-01-07T04:13:15.020Z,70.19
2023-01-07T04:15:41.650Z,69.58
2023-01-07T04:18:08.274Z,69.38
2023-01-07T04:20:34.921Z,70.02
2023-01-07T04:23:01.544Z,69.77
2023-01-07T04:25:28.188Z,69.83
2023-01-07T04:27:54.823Z,69.90
2023-01-07T04:30:21.459Z,69.07
2023-01-07T04:32:48.074Z,69.10
2023-01-07T04:35:14.711Z,69.12
2023-01-07T04:37:41.441Z,69.44
2023-01-07T04:40:08.657Z,69.12
2023-01-07T04:42:35.290Z,69.18
2023-01-07T04:45:01.952Z,69.82
2023-01-07T04:47:28.604Z,70.18
2023-01-07T04:49:55.279Z,70.63
2023-01-07T04:52:21.917Z,70.34
2023-01-07T04:54:48.538Z,69.67
2023-01-07T04:57:15.183Z,69.65
2023-01-07T04:59:41.842Z,69.33
2023-01-07T05:02:08.532Z,69.13
2023-01-07T05:04:35.261Z,69.07
2023-01-07T05:07:01.967Z,69.32
2023-01-07T05:09:28.607Z,70.00
2023-01-07T05:11:55.234Z,69.77
2023-01-07T05:14:21.897Z,69.80
2023-01-07T05:16:48.566Z,69.74
2023-01-07T05:19:15.285Z,69.46
2023-01-07T05:21:41.909Z,69.70
2023-01-07T05:24:08.579Z,69.46
2023-01-07T05:26:35.217Z,69.61
2023-01-07T05:29:01.834Z,69.26
2023-01-07T05:31:28.444Z,68.48
2023-01-07T05:33:55.079Z,67.46
2023-01-07T05:36:21.803Z,67.39
2023-01-07T05:38:48.443Z,66.95
2023-01-07T05:41:15.063Z,66.40
2023-01-07T05:43:41.681Z,67.06
2023-01-07T05:46:08.430Z,67.76
2023-01-07T05:48:35.086Z,66.81
2023-01-07T05:51:01.706Z,67.06
2023-01-07T05:53:28.385Z,67.62
2023-01-07T05:55:58.259Z,67.37
2023-01-07T05:58:24.904Z,66.12
2023-01-07T06:00:51.558Z,66.02
2023-01-07T06:03:18.295Z,66.64
2023-01-07T06:05:44.959Z,66.46
2023-01-07T06:08:11.600Z,66.56
2023-01-07T06:10:38.264Z,66.57
2023-01-07T06:13:04.903Z,66.40
2023-01-07T06:15:31.583Z,66.08
2023-01-07T06:17:58.230Z,66.65
2023-01-07T06:20:27.535Z,67.06
2023-01-07T06:22:54.178Z,66.91
2023-01-07T06:25:20.816Z,66.87
2023-01-07T06:27:47.472Z,66.29
2023-01-07T06:30:14.120Z,66.28
2023-01-07T06:32:41.426Z,66.57
2023-01-07T06:35:08.947Z,67.07
2023-01-07T06:37:35.572Z,67.52
2023-01-07T06:40:02.260Z,67.24
2023-01-07T06:42:28.914Z,67.45
2023-01-07T06:44:55.534Z,67.02
2023-01-07T06:47:22.181Z,66.86
2023-01-07T06:49:48.836Z,67.26
2023-01-07T06:52:15.471Z,66.77
2023-01-07T06:54:46.950Z,66.63
2023-01-07T06:57:14.887Z,66.81
2023-01-07T06:59:41.515Z,66.50
2023-01-07T07:02:09.672Z,66.77
2023-01-07T07:04:36.386Z,66.82
2023-01-07T07:07:03.012Z,65.93
2023-01-07T07:09:29.638Z,65.40
2023-01-07T07:11:56.268Z,64.53
2023-01-07T07:14:22.922Z,63.97
2023-01-07T07:16:49.627Z,64.43
2023-01-07T07:19:16.245Z,64.59
2023-01-07T07:21:42.863Z,65.42
2023-01-07T07:24:10.298Z,65.20
2023-01-07T07:26:36.965Z,65.74
2023-01-07T07:29:03.611Z,65.92
2023-01-07T07:31:30.285Z,65.93
2023-01-07T07:33:56.943Z,65.99
2023-01-07T07:36:23.598Z,65.60
2023-01-07T07:38:50.207Z,65.74
2023-01-07T07:41:16.833Z,65.98
2023-01-07T07:43:43.466Z,66.03
2023-01-07T07:46:10.113Z,66.20
2023-01-07T07:48:36.746Z,66.24
2023-01-07T07:51:03.429Z,66.97
2023-01-07T07:53:30.387Z,65.55
2023-01-07T07:55:57.020Z,64.81
2023-01-07T07:58:23.632Z,65.36
2023-01-07T08:00:50.347Z,65.88
2023-01-07T08:03:17.059Z,66.40
2023-01-07T08:05:43.873Z,67.26
2023-01-07T08:08:11.541Z,68.08
2023-01-07T08:10:38.175Z,67.88
2023-01-07T08:13:04.806Z,67.94
2023-01-07T08:15:31.473Z,66.72
2023-01-07T08:18:02.185Z,62.96
2023-01-07T08:20:28.844Z,57.27
2023-01-07T08:22:57.644Z,52.45
2023-01-07T08:25:24.282Z,48.21
2023-01-07T08:27:50.926Z,43.87
2023-01-07T08:30:17.563Z,41.13
2023-01-07T08:32:44.185Z,39.62
2023-01-07T08:35:10.829Z,37.71
2023-01-07T08:37:37.925Z,36.59
2023-01-07T08:40:06.120Z,36.18
2023-01-07T08:42:32.827Z,34.43
2023-01-07T08:44:59.450Z,32.72
2023-01-07T08:47:26.253Z,30.88
2023-01-07T08:49:53.309Z,30.84
2023-01-07T08:52:19.925Z,30.10
2023-01-07T08:54:48.205Z,29.19
2023-01-07T08:57:15.791Z,29.55
2023-01-07T08:59:42.422Z,28.58
2023-01-07T09:02:18.625Z,26.99
2023-01-07T09:04:45.557Z,26.00
2023-01-07T09:07:12.354Z,25.54
2023-01-07T09:09:39.002Z,24.71
2023-01-07T09:12:06.850Z,22.82
2023-01-07T09:14:33.827Z,23.52
2023-01-07T09:17:00.492Z,22.58
2023-01-07T09:19:27.781Z,22.49
2023-01-07T09:21:54.715Z,22.02
2023-01-07T09:24:21.376Z,22.57
2023-01-07T09:26:48.083Z,21.83
2023-01-07T09:29:14.947Z,22.02
2023-01-07T09:31:41.620Z,21.84
2023-01-07T09:34:08.318Z,21.33
2023-01-07T09:36:35.002Z,21.19
2023-01-07T09:39:01.976Z,21.68
2023-01-07T09:41:37.218Z,21.77
2023-01-07T09:44:19.831Z,22.60
2023-01-07T09:46:46.700Z,22.72
2023-01-07T09:49:16.188Z,23.43
2023-01-07T09:51:42.836Z,24.05
2023-01-07T09:54:29.384Z,23.40
2023-01-07T09:56:56.054Z,24.80
2023-01-07T09:59:24.161Z,25.41
2023-01-07T10:02:05.321Z,28.91
2023-01-07T10:04:51.334Z,29.60
2023-01-07T10:07:21.014Z,30.30
2023-01-07T10:09:53.793Z,31.46
2023-01-07T10:12:47.199Z,31.84
2023-01-07T10:15:35.273Z,33.82
2023-01-07T10:18:29.825Z,34.65
2023-01-07T10:21:10.730Z,34.17
2023-01-07T10:23:39.613Z,34.90
2023-01-07T10:26:06.647Z,36.47
2023-01-07T10:28:40.057Z,37.88
2023-01-07T10:31:07.178Z,39.81
2023-01-07T10:33:33.884Z,38.13
2023-01-07T10:36:18.823Z,38.04
2023-01-07T10:38:49.002Z,39.13
2023-01-07T10:41:22.971Z,39.54
2023-01-07T10:43:56.407Z,39.30
2023-01-07T10:46:39.479Z,40.23
2023-01-07T10:49:22.547Z,39.71
2023-01-07T10:52:10.138Z,40.78
2023-01-07T10:54:55.361Z,41.61
2023-01-07T10:57:23.898Z,42.07
2023-01-07T10:59:52.069Z,42.36
2023-01-07T11:02:20.768Z,42.60
2023-01-07T11:04:47.604Z,44.21
2023-01-07T11:07:38.321Z,43.65
2023-01-07T11:10:05.224Z,44.84
2023-01-07T11:12:36.944Z,44.87
2023-01-07T11:15:15.410Z,42.32
2023-01-07T11:17:46.745Z,42.75
2023-01-07T11:20:13.425Z,42.49
2023-01-07T11:22:40.096Z,43.53
2023-01-07T11:25:26.229Z,42.98
2023-01-07T11:27:52.956Z,43.09
2023-01-07T11:30:30.715Z,42.50
2023-01-07T11:32:59.711Z,44.13
2023-01-07T11:35:26.456Z,44.74
2023-01-07T11:37:54.343Z,44.89
2023-01-07T11:40:22.379Z,45.10
2023-01-07T11:42:51.343Z,44.94
2023-01-07T11:45:19.519Z,45.77
2023-01-07T11:47:55.528Z,45.41
2023-01-07T11:50:30.363Z,44.47
2023-01-07T11:53:02.308Z,44.25
2023-01-07T11:55:29.152Z,45.13
2023-01-07T11:58:28.933Z,44.74
2023-01-07T12:00:42.592Z,43.42
2023-01-07T12:03:11.429Z,44.10
2023-01-07T12:05:38.594Z,44.16
2023-01-07T12:08:05.270Z,44.15
2023-01-07T12:10:34.127Z,45.36
2023-01-07T12:13:01.745Z,42.12
2023-01-07T12:15:30.488Z,41.66
2023-01-07T12:18:03.189Z,41.61
2023-01-07T12:20:48.979Z,41.35
2023-01-07T12:23:28.667Z,40.33
2023-01-07T12:26:22.741Z,41.56
2023-01-07T12:29:07.862Z,40.69
2023-01-07T12:31:43.504Z,41.78
2023-01-07T12:34:26.254Z,43.80
2023-01-07T12:36:56.776Z,40.80
2023-01-07T12:39:29.573Z,40.32
2023-01-07T12:42:09.478Z,39.89
2023-01-07T12:44:36.803Z,39.83
2023-01-07T12:47:31.025Z,40.01
2023-01-07T12:50:14.084Z,39.91
2023-01-07T12:53:01.978Z,41.74
2023-01-07T12:55:31.438Z,43.41
2023-01-07T12:58:20.128Z,43.79
2023-01-07T13:00:57.337Z,45.11
2023-01-07T13:04:02.945Z,45.89
2023-01-07T13:06:37.425Z,46.19
2023-01-07T13:09:12.312Z,43.48
2023-01-07T13:11:43.626Z,45.24
2023-01-07T13:14:34.581Z,44.61
2023-01-07T13:17:08.445Z,46.36
2023-01-07T13:19:35.077Z,45.71
2023-01-07T13:22:01.721Z,46.80
2023-01-07T13:24:54.847Z,47.26
2023-01-07T13:27:38.352Z,46.51
2023-01-07T13:30:19.302Z,48.88
2023-01-07T13:33:15.929Z,48.83
2023-01-07T13:36:07.813Z,48.65
2023-01-07T13:38:53.289Z,49.60
2023-01-07T13:41:31.771Z,50.16
2023-01-07T13:44:35.469Z,47.83
2023-01-07T13:47:02.707Z,47.93
2023-01-07T13:49:32.903Z,46.65
2023-01-07T13:52:20.271Z,46.78
2023-01-07T13:54:49.837Z,46.96
2023-01-07T13:57:31.482Z,49.02
2023-01-07T13:59:59.136Z,50.01
2023-01-07T14:02:26.669Z,49.23
2023-01-07T14:05:06.250Z,47.37
2023-01-07T14:07:42.269Z,48.09
2023-01-07T14:10:22.866Z,47.39
2023-01-07T14:13:11.553Z,47.18
2023-01-07T14:16:10.538Z,47.10
2023-01-07T14:18:49.654Z,46.45
2023-01-07T14:21:22.736Z,46.75
2023-01-07T14:24:24.700Z,47.33
2023-01-07T14:26:57.288Z,46.91
2023-01-07T14:29:44.979Z,48.51
2023-01-07T14:32:31.014Z,46.38
2023-01-07T14:35:00.015Z,46.80
2023-01-07T14:37:52.832Z,46.86
2023-01-07T14:40:28.169Z,46.39
2023-01-07T14:42:55.848Z,47.03
2023-01-07T14:45:40.764Z,46.88
2023-01-07T14:48:10.286Z,48.55
2023-01-07T14:50:48.971Z,46.79
2023-01-07T14:53:44.134Z,46.95
2023-01-07T14:56:38.461Z,48.06
2023-01-07T14:59:20.162Z,47.93
2023-01-07T15:02:01.021Z,47.79
2023-01-07T15:04:49.778Z,47.88
2023-01-07T15:07:18.431Z,49.34
2023-01-07T15:09:50.683Z,48.65
2023-01-07T15:12:20.323Z,48.30
2023-01-07T15:14:48.605Z,48.92
2023-01-07T15:17:15.316Z,48.57
2023-01-07T15:19:41.956Z,49.28
2023-01-07T15:22:30.566Z,49.28
2023-01-07T15:25:06.223Z,49.02
2023-01-07T15:27:54.247Z,50.04
2023-01-07T15:30:35.092Z,51.24
2023-01-07T15:33:09.705Z,52.56
2023-01-07T15:35:40.967Z,52.03
2023-01-07T15:38:31.575Z,54.23
2023-01-07T15:40:58.202Z,54.33
2023-01-07T15:43:28.787Z,54.17
2023-01-07T15:46:05.273Z,55.69
2023-01-07T15:48:31.983Z,55.17
2023-01-07T15:50:58.746Z,55.33
2023-01-07T15:53:26.352Z,56.64
2023-01-07T15:56:01.747Z,57.15
2023-01-07T15:58:40.452Z,56.67
2023-01-07T16:01:08.040Z,56.80
2023-01-07T16:03:36.935Z,56.75
2023-01-07T16:06:03.668Z,58.66
2023-01-07T16:08:32.349Z,59.36
2023-01-07T16:11:03.648Z,58.46
2023-01-07T16:13:30.799Z,57.91
2023-01-07T16:15:58.973Z,58.42
2023-01-07T16:18:25.653Z,58.61
2023-01-07T16:21:00.414Z,58.82
2023-01-07T16:23:28.379Z,59.68
2023-01-07T16:26:14.238Z,59.47
2023-01-07T16:28:44.004Z,60.61
2023-01-07T16:31:12.109Z,60.50
2023-01-07T16:33:38.838Z,59.80
2023-01-07T16:36:08.118Z,58.71
2023-01-07T16:38:34.751Z,59.95
2023-01-07T16:41:01.401Z,59.21
2023-01-07T16:43:40.035Z,60.38
2023-01-07T16:46:30.091Z,60.13
2023-01-07T16:49:08.804Z,60.26
2023-01-07T16:51:46.693Z,60.68
2023-01-07T16:54:28.864Z,61.33
2023-01-07T16:56:59.410Z,60.87
2023-01-07T16:59:32.833Z,60.25
2023-01-07T17:02:01.666Z,60.90
2023-01-07T17:04:28.984Z,60.00
2023-01-07T17:06:56.864Z,61.10
2023-01-07T17:09:47.938Z,60.26
2023-01-07T17:12:28.339Z,59.20
2023-01-07T17:14:55.465Z,58.71
2023-01-07T17:17:25.191Z,59.58
2023-01-07T17:20:23.604Z,60.43
2023-01-07T17:22:52.366Z,60.34
2023-01-07T17:25:26.248Z,60.36
2023-01-07T17:27:57.954Z,59.75
2023-01-07T17:30:27.469Z,59.69
2023-01-07T17:32:54.088Z,59.17
2023-01-07T17:35:22.349Z,59.07
2023-01-07T17:37:49.392Z,59.76
2023-01-07T17:40:16.731Z,59.47
2023-01-07T17:42:43.442Z,58.61
2023-01-07T17:45:14.415Z,59.02
2023-01-07T17:47:41.081Z,59.45
2023-01-07T17:50:08.340Z,58.75
2023-01-07T17:52:34.975Z,58.15
2023-01-07T17:55:01.655Z,59.32
2023-01-07T17:57:28.274Z,59.20
2023-01-07T17:59:54.889Z,58.11
2023-01-07T18:02:23.295Z,58.68
2023-01-07T18:04:49.959Z,58.62
2023-01-07T18:07:16.625Z,59.84
2023-01-07T18:09:43.266Z,59.72
2023-01-07T18:12:18.958Z,58.26
2023-01-07T18:14:45.720Z,57.55
2023-01-07T18:17:12.365Z,59.76
2023-01-07T18:19:39.107Z,59.92
2023-01-07T18:22:05.761Z,59.55
2023-01-07T18:24:32.570Z,60.45
2023-01-07T18:26:59.226Z,60.00
2023-01-07T18:29:25.900Z,59.64
2023-01-07T18:31:52.660Z,58.75
2023-01-07T18:34:19.354Z,59.24
2023-01-07T18:36:46.019Z,60.77
2023-01-07T18:39:19.121Z,61.46
2023-01-07T18:41:46.193Z,60.67
2023-01-07T18:44:12.863Z,60.48
2023-01-07T18:46:39.577Z,60.87
2023-01-07T18:49:06.236Z,60.28
2023-01-07T18:51:32.905Z,61.38
2023-01-07T18:53:59.546Z,62.28
2023-01-07T18:56:26.196Z,62.11
2023-01-07T18:58:53.489Z,62.37
2023-01-07T19:01:20.243Z,62.86
2023-01-07T19:03:47.307Z,62.49
2023-01-07T19:06:13.933Z,62.44
2023-01-07T19:08:40.559Z,62.13
2023-01-07T19:11:11.861Z,61.75
2023-01-07T19:13:38.477Z,61.41
2023-01-07T19:16:09.363Z,62.13
2023-01-07T19:18:36.132Z,61.79
2023-01-07T19:21:06.562Z,61.72
2023-01-07T19:23:33.250Z,61.66
2023-01-07T19:26:00.867Z,61.43
2023-01-07T19:28:27.569Z,61.31
2023-01-07T19:30:56.719Z,60.58
2023-01-07T19:33:23.396Z,60.28
2023-01-07T19:35:50.097Z,60.60
2023-01-07T19:38:16.722Z,60.08
2023-01-07T19:40:46.322Z,59.93
2023-01-07T19:43:12.954Z,61.56
2023-01-07T19:45:40.114Z,60.72
2023-01-07T19:48:07.050Z,60.93
2023-01-07T19:50:33.677Z,61.40
2023-01-07T19:53:00.294Z,60.79
2023-01-07T19:55:26.918Z,60.56
2023-01-07T19:57:53.570Z,60.84
2023-01-07T20:00:20.233Z,61.88
2023-01-07T20:02:46.959Z,62.37
2023-01-07T20:05:13.730Z,62.78
2023-01-07T20:07:40.378Z,62.88
2023-01-07T20:10:07.494Z,62.84
2023-01-07T20:12:34.161Z,62.12
2023-01-07T20:15:00.798Z,61.28
2023-01-07T20:17:27.451Z,60.47
2023-01-07T20:19:54.365Z,60.74
2023-01-07T20:22:21.000Z,60.26
2023-01-07T20:24:47.661Z,59.62
2023-01-07T20:27:14.336Z,59.97
2023-01-07T20:29:40.995Z,60.27
2023-01-07T20:32:07.767Z,60.63
2023-01-07T20:34:34.481Z,60.75
2023-01-07T20:37:01.363Z,60.44
2023-01-07T20:39:27.982Z,59.74
2023-01-07T20:41:55.238Z,59.41
2023-01-07T20:44:21.858Z,59.82
2023-01-07T20:46:48.561Z,59.78
2023-01-07T20:49:15.186Z,60.60
2023-01-07T20:51:41.910Z,60.54
2023-01-07T20:54:08.538Z,60.84
2023-01-07T20:56:35.273Z,60.29
2023-01-07T20:59:01.926Z,61.15
2023-01-07T21:01:28.722Z,60.75
2023-01-07T21:03:55.446Z,60.40
2023-01-07T21:06:22.120Z,59.92
2023-01-07T21:08:49.183Z,59.16
2023-01-07T21:11:17.607Z,60.23
2023-01-07T21:13:44.294Z,60.11
2023-01-07T21:16:11.057Z,59.94
2023-01-07T21:18:37.745Z,59.64
2023-01-07T21:21:11.695Z,60.68
2023-01-07T21:23:38.402Z,61.14
2023-01-07T21:26:05.303Z,60.36
2023-01-07T21:28:31.950Z,60.47
2023-01-07T21:31:05.378Z,60.23
2023-01-07T21:33:32.903Z,60.62
2023-01-07T21:35:59.621Z,60.28
2023-01-07T21:38:26.548Z,59.30
2023-01-07T21:40:53.188Z,59.84
2023-01-07T21:43:19.866Z,60.24
2023-01-07T21:45:47.048Z,59.74
2023-01-07T21:48:13.717Z,58.58
2023-01-07T21:50:40.866Z,59.97
2023-01-07T21:53:07.545Z,60.19
2023-01-07T21:55:38.281Z,61.17
2023-01-07T21:58:04.925Z,59.59
2023-01-07T22:00:31.791Z,59.70
2023-01-07T22:02:58.433Z,59.21
2023-01-07T22:05:25.353Z,59.44
2023-01-07T22:07:52.063Z,59.74
2023-01-07T22:10:18.928Z,59.88
2023-01-07T22:12:45.592Z,61.16
2023-01-07T22:15:12.339Z,61.22
2023-01-07T22:17:39.211Z,60.30
2023-01-07T22:20:06.411Z,59.84
2023-01-07T22:22:33.049Z,58.86
2023-01-07T22:24:59.697Z,59.88
2023-01-07T22:27:26.464Z,60.64
2023-01-07T22:29:53.130Z,60.63
2023-01-07T22:32:19.852Z,60.51
2023-01-07T22:34:46.494Z,61.26
2023-01-07T22:37:15.003Z,60.79
2023-01-07T22:39:46.590Z,60.68
2023-01-07T22:42:26.031Z,60.88
2023-01-07T22:44:55.000Z,60.83
2023-01-07T22:47:29.085Z,60.75
2023-01-07T22:49:55.741Z,60.60
2023-01-07T22:52:22.401Z,59.89
2023-01-07T22:54:49.304Z,60.27
2023-01-07T22:57:16.032Z,59.94
2023-01-07T22:59:42.893Z,59.64
2023-01-07T23:02:09.532Z,59.93
2023-01-07T23:04:36.402Z,59.52
2023-01-07T23:07:03.012Z,59.32
2023-01-07T23:09:29.687Z,58.83
2023-01-07T23:11:56.301Z,59.04
2023-01-07T23:14:22.940Z,58.62
2023-01-07T23:16:49.942Z,58.38
2023-01-07T23:19:18.447Z,59.34
2023-01-07T23:21:46.522Z,58.58
2023-01-07T23:24:13.761Z,58.57
2023-01-07T23:26:40.899Z,59.06
2023-01-07T23:29:07.551Z,58.47
2023-01-07T23:31:34.806Z,57.24
2023-01-07T23:34:01.513Z,58.10
2023-01-07T23:36:28.181Z,58.86
2023-01-07T23:38:54.851Z,58.69
2023-01-07T23:41:21.515Z,59.16
2023-01-07T23:43:48.809Z,60.04
2023-01-07T23:46:15.547Z,60.07
2023-01-07T23:48:42.220Z,59.78
2023-01-07T23:51:12.697Z,61.07
2023-01-07T23:53:39.356Z,60.60
2023-01-07T23:56:06.276Z,60.51
2023-01-07T23:58:33.022Z,59.29
